sensor_id;sensor_type;location;lat;lon;timestamp;P1;durP1;ratioP1;P2;durP2;ratioP2
2868;SDS011;1442;47.448;8.582;2024-01-27T00:02:23;0.90;;;0.70;;
2868;SDS011;1442;47.448;8.582;2024-01-27T00:04:50;1.35;;;0.70;;
2868;SDS011;1442;47.448;8.582;2024-01-27T00:07:17;6.18;;;1.20;;
2868;SDS011;1442;47.448;8.582;2024-01-27T00:09:45;1.13;;;0.60;;
2868;SDS011;1442;47.448;8.582;2024-01-27T00:12:12;2.92;;;0.90;;
2868;SDS011;1442;47.448;8.582;2024-01-27T00:14:39;2.13;;;0.73;;
2868;SDS011;1442;47.448;8.582;2024-01-27T00:17:05;5.72;;;0.90;;
2868;SDS011;1442;47.448;8.582;2024-01-27T00:19:32;3.33;;;0.80;;
2868;SDS011;1442;47.448;8.582;2024-01-27T00:21:59;3.35;;;0.93;;
2868;SDS011;1442;47.448;8.582;2024-01-27T00:24:26;4.25;;;1.42;;
2868;SDS011;1442;47.448;8.582;2024-01-27T00:26:54;2.85;;;0.68;;
2868;SDS011;1442;47.448;8.582;2024-01-27T00:29:20;2.70;;;0.95;;
2868;SDS011;1442;47.448;8.582;2024-01-27T00:31:47;6.10;;;1.38;;
2868;SDS011;1442;47.448;8.582;2024-01-27T00:34:15;5.28;;;1.02;;
2868;SDS011;1442;47.448;8.582;2024-01-27T00:36:42;2.30;;;1.15;;
2868;SDS011;1442;47.448;8.582;2024-01-27T00:39:13;4.03;;;1.13;;
2868;SDS011;1442;47.448;8.582;2024-01-27T00:41:40;4.60;;;0.90;;
2868;SDS011;1442;47.448;8.582;2024-01-27T00:44:08;4.22;;;1.55;;
2868;SDS011;1442;47.448;8.582;2024-01-27T00:46:36;4.05;;;1.20;;
2868;SDS011;1442;47.448;8.582;2024-01-27T00:49:03;3.28;;;0.90;;
2868;SDS011;1442;47.448;8.582;2024-01-27T00:51:30;1.80;;;0.82;;
2868;SDS011;1442;47.448;8.582;2024-01-27T00:53:56;3.33;;;1.20;;
2868;SDS011;1442;47.448;8.582;2024-01-27T00:56:23;4.65;;;1.23;;
2868;SDS011;1442;47.448;8.582;2024-01-27T00:58:50;4.82;;;0.90;;
2868;SDS011;1442;47.448;8.582;2024-01-27T01:01:18;4.03;;;1.25;;
2868;SDS011;1442;47.448;8.582;2024-01-27T01:03:45;1.30;;;1.20;;
2868;SDS011;1442;47.448;8.582;2024-01-27T01:06:11;7.18;;;1.17;;
2868;SDS011;1442;47.448;8.582;2024-01-27T01:08:38;2.53;;;0.95;;
2868;SDS011;1442;47.448;8.582;2024-01-27T01:11:05;4.25;;;1.00;;
2868;SDS011;1442;47.448;8.582;2024-01-27T01:13:32;3.75;;;1.05;;
2868;SDS011;1442;47.448;8.582;2024-01-27T01:15:58;6.13;;;1.00;;
2868;SDS011;1442;47.448;8.582;2024-01-27T01:18:26;4.35;;;1.05;;
2868;SDS011;1442;47.448;8.582;2024-01-27T01:20:53;5.15;;;1.30;;
2868;SDS011;1442;47.448;8.582;2024-01-27T01:23:20;3.47;;;0.82;;
2868;SDS011;1442;47.448;8.582;2024-01-27T01:25:47;4.35;;;1.35;;
2868;SDS011;1442;47.448;8.582;2024-01-27T01:28:13;5.18;;;1.65;;
2868;SDS011;1442;47.448;8.582;2024-01-27T01:30:40;2.47;;;1.00;;
2868;SDS011;1442;47.448;8.582;2024-01-27T01:33:06;2.65;;;0.90;;
2868;SDS011;1442;47.448;8.582;2024-01-27T01:35:34;4.50;;;1.42;;
2868;SDS011;1442;47.448;8.582;2024-01-27T01:38:02;3.10;;;1.17;;
2868;SDS011;1442;47.448;8.582;2024-01-27T01:40:29;4.90;;;1.27;;
2868;SDS011;1442;47.448;8.582;2024-01-27T01:42:57;3.05;;;1.23;;
2868;SDS011;1442;47.448;8.582;2024-01-27T01:45:25;2.63;;;1.30;;
2868;SDS011;1442;47.448;8.582;2024-01-27T01:47:51;2.13;;;1.27;;
2868;SDS011;1442;47.448;8.582;2024-01-27T01:50:18;1.88;;;1.30;;
2868;SDS011;1442;47.448;8.582;2024-01-27T01:52:47;5.32;;;1.20;;
2868;SDS011;1442;47.448;8.582;2024-01-27T01:55:15;3.83;;;1.35;;
2868;SDS011;1442;47.448;8.582;2024-01-27T01:57:43;2.63;;;1.50;;
2868;SDS011;1442;47.448;8.582;2024-01-27T02:00:10;2.80;;;1.20;;
2868;SDS011;1442;47.448;8.582;2024-01-27T02:02:38;3.30;;;1.33;;
2868;SDS011;1442;47.448;8.582;2024-01-27T02:05:05;2.72;;;1.20;;
2868;SDS011;1442;47.448;8.582;2024-01-27T02:07:35;2.45;;;1.30;;
2868;SDS011;1442;47.448;8.582;2024-01-27T02:10:03;1.02;;;0.98;;
2868;SDS011;1442;47.448;8.582;2024-01-27T02:12:31;2.90;;;1.25;;
2868;SDS011;1442;47.448;8.582;2024-01-27T02:14:58;2.25;;;1.25;;
2868;SDS011;1442;47.448;8.582;2024-01-27T02:17:25;2.65;;;1.25;;
2868;SDS011;1442;47.448;8.582;2024-01-27T02:19:51;2.17;;;1.20;;
2868;SDS011;1442;47.448;8.582;2024-01-27T02:22:18;2.67;;;1.27;;
2868;SDS011;1442;47.448;8.582;2024-01-27T02:24:46;3.40;;;1.27;;
2868;SDS011;1442;47.448;8.582;2024-01-27T02:27:13;2.78;;;1.30;;
2868;SDS011;1442;47.448;8.582;2024-01-27T02:29:40;2.67;;;1.25;;
2868;SDS011;1442;47.448;8.582;2024-01-27T02:32:06;5.57;;;1.60;;
2868;SDS011;1442;47.448;8.582;2024-01-27T02:34:33;2.35;;;1.38;;
2868;SDS011;1442;47.448;8.582;2024-01-27T02:37:00;2.35;;;1.40;;
2868;SDS011;1442;47.448;8.582;2024-01-27T02:39:26;3.97;;;1.30;;
2868;SDS011;1442;47.448;8.582;2024-01-27T02:41:55;6.65;;;1.58;;
2868;SDS011;1442;47.448;8.582;2024-01-27T02:44:21;3.33;;;1.35;;
2868;SDS011;1442;47.448;8.582;2024-01-27T02:46:48;2.63;;;1.50;;
2868;SDS011;1442;47.448;8.582;2024-01-27T02:49:15;3.17;;;1.60;;
2868;SDS011;1442;47.448;8.582;2024-01-27T02:51:41;7.63;;;1.50;;
2868;SDS011;1442;47.448;8.582;2024-01-27T02:54:09;4.85;;;1.50;;
2868;SDS011;1442;47.448;8.582;2024-01-27T02:56:35;3.05;;;1.20;;
2868;SDS011;1442;47.448;8.582;2024-01-27T02:59:04;3.88;;;1.75;;
2868;SDS011;1442;47.448;8.582;2024-01-27T03:01:30;5.43;;;1.55;;
2868;SDS011;1442;47.448;8.582;2024-01-27T03:03:57;3.70;;;1.85;;
2868;SDS011;1442;47.448;8.582;2024-01-27T03:06:24;4.97;;;1.40;;
2868;SDS011;1442;47.448;8.582;2024-01-27T03:08:51;3.67;;;1.60;;
2868;SDS011;1442;47.448;8.582;2024-01-27T03:11:17;7.35;;;2.00;;
2868;SDS011;1442;47.448;8.582;2024-01-27T03:13:44;5.45;;;1.48;;
2868;SDS011;1442;47.448;8.582;2024-01-27T03:16:12;8.13;;;1.70;;
2868;SDS011;1442;47.448;8.582;2024-01-27T03:18:39;5.43;;;1.58;;
2868;SDS011;1442;47.448;8.582;2024-01-27T03:21:06;3.30;;;1.30;;
2868;SDS011;1442;47.448;8.582;2024-01-27T03:23:33;3.75;;;1.50;;
2868;SDS011;1442;47.448;8.582;2024-01-27T03:26:02;3.38;;;1.15;;
2868;SDS011;1442;47.448;8.582;2024-01-27T03:28:29;7.28;;;1.88;;
2868;SDS011;1442;47.448;8.582;2024-01-27T03:30:56;3.78;;;1.60;;
2868;SDS011;1442;47.448;8.582;2024-01-27T03:33:26;6.03;;;1.50;;
2868;SDS011;1442;47.448;8.582;2024-01-27T03:35:54;7.70;;;1.50;;
2868;SDS011;1442;47.448;8.582;2024-01-27T03:38:21;3.30;;;1.65;;
2868;SDS011;1442;47.448;8.582;2024-01-27T03:40:47;3.42;;;1.20;;
2868;SDS011;1442;47.448;8.582;2024-01-27T03:43:14;2.88;;;1.15;;
2868;SDS011;1442;47.448;8.582;2024-01-27T03:45:41;4.88;;;1.50;;
2868;SDS011;1442;47.448;8.582;2024-01-27T03:48:07;5.60;;;1.63;;
2868;SDS011;1442;47.448;8.582;2024-01-27T03:50:36;9.18;;;1.42;;
2868;SDS011;1442;47.448;8.582;2024-01-27T03:53:02;2.92;;;1.55;;
2868;SDS011;1442;47.448;8.582;2024-01-27T03:55:29;1.58;;;1.35;;
2868;SDS011;1442;47.448;8.582;2024-01-27T03:57:57;4.68;;;1.40;;
2868;SDS011;1442;47.448;8.582;2024-01-27T04:00:24;3.78;;;1.33;;
2868;SDS011;1442;47.448;8.582;2024-01-27T04:02:51;6.50;;;1.40;;
2868;SDS011;1442;47.448;8.582;2024-01-27T04:05:17;2.72;;;1.42;;
2868;SDS011;1442;47.448;8.582;2024-01-27T04:07:46;5.93;;;1.27;;
2868;SDS011;1442;47.448;8.582;2024-01-27T04:10:12;2.53;;;1.40;;
2868;SDS011;1442;47.448;8.582;2024-01-27T04:12:39;4.78;;;1.30;;
2868;SDS011;1442;47.448;8.582;2024-01-27T04:15:06;4.80;;;1.50;;
2868;SDS011;1442;47.448;8.582;2024-01-27T04:17:33;4.80;;;1.92;;
2868;SDS011;1442;47.448;8.582;2024-01-27T04:20:00;4.25;;;1.33;;
2868;SDS011;1442;47.448;8.582;2024-01-27T04:22:27;5.00;;;2.05;;
2868;SDS011;1442;47.448;8.582;2024-01-27T04:24:55;4.63;;;1.98;;
2868;SDS011;1442;47.448;8.582;2024-01-27T04:27:22;9.48;;;1.77;;
2868;SDS011;1442;47.448;8.582;2024-01-27T04:29:49;3.05;;;1.52;;
2868;SDS011;1442;47.448;8.582;2024-01-27T04:32:15;6.38;;;1.63;;
2868;SDS011;1442;47.448;8.582;2024-01-27T04:34:42;6.55;;;2.10;;
2868;SDS011;1442;47.448;8.582;2024-01-27T04:37:09;7.60;;;1.58;;
2868;SDS011;1442;47.448;8.582;2024-01-27T04:39:36;2.10;;;1.55;;
2868;SDS011;1442;47.448;8.582;2024-01-27T04:42:05;6.47;;;1.52;;
2868;SDS011;1442;47.448;8.582;2024-01-27T04:44:32;2.90;;;1.45;;
2868;SDS011;1442;47.448;8.582;2024-01-27T04:46:59;2.50;;;1.50;;
2868;SDS011;1442;47.448;8.582;2024-01-27T04:49:26;4.45;;;1.55;;
2868;SDS011;1442;47.448;8.582;2024-01-27T04:51:52;3.08;;;1.48;;
2868;SDS011;1442;47.448;8.582;2024-01-27T04:54:19;3.65;;;1.55;;
2868;SDS011;1442;47.448;8.582;2024-01-27T04:56:46;6.25;;;1.63;;
2868;SDS011;1442;47.448;8.582;2024-01-27T04:59:14;3.90;;;1.52;;
2868;SDS011;1442;47.448;8.582;2024-01-27T05:01:43;2.00;;;1.30;;
2868;SDS011;1442;47.448;8.582;2024-01-27T05:04:10;2.03;;;1.45;;
2868;SDS011;1442;47.448;8.582;2024-01-27T05:06:37;3.22;;;1.30;;
2868;SDS011;1442;47.448;8.582;2024-01-27T05:09:04;4.45;;;1.73;;
2868;SDS011;1442;47.448;8.582;2024-01-27T05:11:32;6.63;;;1.88;;
2868;SDS011;1442;47.448;8.582;2024-01-27T05:13:59;4.20;;;1.50;;
2868;SDS011;1442;47.448;8.582;2024-01-27T05:16:27;1.75;;;1.30;;
2868;SDS011;1442;47.448;8.582;2024-01-27T05:18:54;5.47;;;2.10;;
2868;SDS011;1442;47.448;8.582;2024-01-27T05:21:21;5.22;;;2.35;;
2868;SDS011;1442;47.448;8.582;2024-01-27T05:23:48;2.22;;;1.42;;
2868;SDS011;1442;47.448;8.582;2024-01-27T05:26:15;4.88;;;1.65;;
2868;SDS011;1442;47.448;8.582;2024-01-27T05:28:41;4.25;;;1.50;;
2868;SDS011;1442;47.448;8.582;2024-01-27T05:31:08;3.10;;;1.70;;
2868;SDS011;1442;47.448;8.582;2024-01-27T05:33:37;4.75;;;1.55;;
2868;SDS011;1442;47.448;8.582;2024-01-27T05:36:04;3.05;;;1.65;;
2868;SDS011;1442;47.448;8.582;2024-01-27T05:38:31;4.28;;;1.77;;
2868;SDS011;1442;47.448;8.582;2024-01-27T05:40:58;4.60;;;1.58;;
2868;SDS011;1442;47.448;8.582;2024-01-27T05:43:27;4.10;;;2.20;;
2868;SDS011;1442;47.448;8.582;2024-01-27T05:45:54;4.65;;;1.67;;
2868;SDS011;1442;47.448;8.582;2024-01-27T05:48:20;5.95;;;1.80;;
2868;SDS011;1442;47.448;8.582;2024-01-27T05:50:55;3.03;;;2.05;;
2868;SDS011;1442;47.448;8.582;2024-01-27T05:53:22;5.43;;;2.13;;
2868;SDS011;1442;47.448;8.582;2024-01-27T05:55:49;5.03;;;2.03;;
2868;SDS011;1442;47.448;8.582;2024-01-27T05:58:16;4.63;;;2.20;;
2868;SDS011;1442;47.448;8.582;2024-01-27T06:00:46;3.70;;;2.00;;
2868;SDS011;1442;47.448;8.582;2024-01-27T06:03:13;5.70;;;2.13;;
2868;SDS011;1442;47.448;8.582;2024-01-27T06:05:40;3.10;;;2.10;;
2868;SDS011;1442;47.448;8.582;2024-01-27T06:08:08;6.63;;;2.20;;
2868;SDS011;1442;47.448;8.582;2024-01-27T06:10:35;5.35;;;2.08;;
2868;SDS011;1442;47.448;8.582;2024-01-27T06:13:02;8.68;;;2.30;;
2868;SDS011;1442;47.448;8.582;2024-01-27T06:15:29;4.88;;;2.53;;
2868;SDS011;1442;47.448;8.582;2024-01-27T06:17:56;4.55;;;2.22;;
2868;SDS011;1442;47.448;8.582;2024-01-27T06:20:23;6.13;;;2.22;;
2868;SDS011;1442;47.448;8.582;2024-01-27T06:22:50;3.72;;;2.05;;
2868;SDS011;1442;47.448;8.582;2024-01-27T06:25:19;6.70;;;2.08;;
2868;SDS011;1442;47.448;8.582;2024-01-27T06:27:46;5.30;;;2.53;;
2868;SDS011;1442;47.448;8.582;2024-01-27T06:30:13;4.35;;;2.47;;
2868;SDS011;1442;47.448;8.582;2024-01-27T06:32:41;4.78;;;2.10;;
2868;SDS011;1442;47.448;8.582;2024-01-27T06:35:07;6.10;;;2.28;;
2868;SDS011;1442;47.448;8.582;2024-01-27T06:37:34;6.82;;;1.90;;
2868;SDS011;1442;47.448;8.582;2024-01-27T06:40:01;7.05;;;2.30;;
2868;SDS011;1442;47.448;8.582;2024-01-27T06:42:30;5.50;;;2.08;;
2868;SDS011;1442;47.448;8.582;2024-01-27T06:44:57;8.68;;;2.50;;
2868;SDS011;1442;47.448;8.582;2024-01-27T06:47:23;4.47;;;2.65;;
2868;SDS011;1442;47.448;8.582;2024-01-27T06:49:50;12.43;;;2.97;;
2868;SDS011;1442;47.448;8.582;2024-01-27T06:52:17;4.03;;;2.45;;
2868;SDS011;1442;47.448;8.582;2024-01-27T06:54:44;5.88;;;2.17;;
2868;SDS011;1442;47.448;8.582;2024-01-27T06:57:17;3.47;;;2.72;;
2868;SDS011;1442;47.448;8.582;2024-01-27T06:59:46;5.60;;;2.10;;
2868;SDS011;1442;47.448;8.582;2024-01-27T07:02:17;6.35;;;2.67;;
2868;SDS011;1442;47.448;8.582;2024-01-27T07:04:44;4.70;;;2.88;;
2868;SDS011;1442;47.448;8.582;2024-01-27T07:07:11;5.40;;;2.55;;
2868;SDS011;1442;47.448;8.582;2024-01-27T07:09:38;8.32;;;2.88;;
2868;SDS011;1442;47.448;8.582;2024-01-27T07:12:05;4.85;;;2.38;;
2868;SDS011;1442;47.448;8.582;2024-01-27T07:14:34;8.20;;;2.72;;
2868;SDS011;1442;47.448;8.582;2024-01-27T07:17:02;6.88;;;2.85;;
2868;SDS011;1442;47.448;8.582;2024-01-27T07:19:29;7.25;;;2.65;;
2868;SDS011;1442;47.448;8.582;2024-01-27T07:21:56;6.15;;;2.30;;
2868;SDS011;1442;47.448;8.582;2024-01-27T07:24:22;5.72;;;2.50;;
2868;SDS011;1442;47.448;8.582;2024-01-27T07:26:49;4.32;;;2.60;;
2868;SDS011;1442;47.448;8.582;2024-01-27T07:29:16;4.90;;;2.60;;
2868;SDS011;1442;47.448;8.582;2024-01-27T07:31:43;6.10;;;2.95;;
2868;SDS011;1442;47.448;8.582;2024-01-27T07:34:11;6.32;;;2.20;;
2868;SDS011;1442;47.448;8.582;2024-01-27T07:36:38;4.60;;;2.45;;
2868;SDS011;1442;47.448;8.582;2024-01-27T07:39:05;4.70;;;2.17;;
2868;SDS011;1442;47.448;8.582;2024-01-27T07:41:31;5.90;;;2.05;;
2868;SDS011;1442;47.448;8.582;2024-01-27T07:44:06;5.30;;;2.28;;
2868;SDS011;1442;47.448;8.582;2024-01-27T07:46:34;4.80;;;2.47;;
2868;SDS011;1442;47.448;8.582;2024-01-27T07:49:01;4.47;;;2.08;;
2868;SDS011;1442;47.448;8.582;2024-01-27T07:51:30;3.45;;;2.65;;
2868;SDS011;1442;47.448;8.582;2024-01-27T07:53:56;5.85;;;2.15;;
2868;SDS011;1442;47.448;8.582;2024-01-27T07:56:24;6.32;;;2.50;;
2868;SDS011;1442;47.448;8.582;2024-01-27T07:58:50;6.00;;;2.30;;
2868;SDS011;1442;47.448;8.582;2024-01-27T08:01:17;4.97;;;2.47;;
2868;SDS011;1442;47.448;8.582;2024-01-27T08:03:45;4.78;;;2.78;;
2868;SDS011;1442;47.448;8.582;2024-01-27T08:06:15;5.22;;;2.40;;
2868;SDS011;1442;47.448;8.582;2024-01-27T08:08:45;6.50;;;2.90;;
2868;SDS011;1442;47.448;8.582;2024-01-27T08:11:12;8.27;;;2.47;;
2868;SDS011;1442;47.448;8.582;2024-01-27T08:13:39;5.07;;;2.85;;
2868;SDS011;1442;47.448;8.582;2024-01-27T08:16:06;4.75;;;2.65;;
2868;SDS011;1442;47.448;8.582;2024-01-27T08:18:34;6.25;;;2.60;;
2868;SDS011;1442;47.448;8.582;2024-01-27T08:21:02;4.55;;;2.33;;
2868;SDS011;1442;47.448;8.582;2024-01-27T08:23:29;4.03;;;2.30;;
2868;SDS011;1442;47.448;8.582;2024-01-27T08:25:57;6.15;;;2.25;;
2868;SDS011;1442;47.448;8.582;2024-01-27T08:28:24;5.25;;;2.60;;
2868;SDS011;1442;47.448;8.582;2024-01-27T08:30:50;9.73;;;3.20;;
2868;SDS011;1442;47.448;8.582;2024-01-27T08:33:17;7.25;;;3.08;;
2868;SDS011;1442;47.448;8.582;2024-01-27T08:35:45;4.07;;;2.70;;
2868;SDS011;1442;47.448;8.582;2024-01-27T08:38:13;3.83;;;2.38;;
2868;SDS011;1442;47.448;8.582;2024-01-27T08:40:40;4.78;;;2.25;;
2868;SDS011;1442;47.448;8.582;2024-01-27T08:43:08;5.78;;;2.50;;
2868;SDS011;1442;47.448;8.582;2024-01-27T08:45:36;7.80;;;2.95;;
2868;SDS011;1442;47.448;8.582;2024-01-27T08:48:05;2.78;;;2.17;;
2868;SDS011;1442;47.448;8.582;2024-01-27T08:50:33;8.77;;;2.78;;
2868;SDS011;1442;47.448;8.582;2024-01-27T08:52:59;7.07;;;2.72;;
2868;SDS011;1442;47.448;8.582;2024-01-27T08:55:26;7.63;;;2.70;;
2868;SDS011;1442;47.448;8.582;2024-01-27T08:57:53;5.25;;;2.80;;
2868;SDS011;1442;47.448;8.582;2024-01-27T09:00:22;4.28;;;2.53;;
2868;SDS011;1442;47.448;8.582;2024-01-27T09:02:50;4.68;;;2.85;;
2868;SDS011;1442;47.448;8.582;2024-01-27T09:05:18;6.07;;;3.97;;
2868;SDS011;1442;47.448;8.582;2024-01-27T09:07:45;6.28;;;3.08;;
2868;SDS011;1442;47.448;8.582;2024-01-27T09:10:11;4.82;;;3.00;;
2868;SDS011;1442;47.448;8.582;2024-01-27T09:12:40;8.07;;;3.15;;
2868;SDS011;1442;47.448;8.582;2024-01-27T09:15:07;5.72;;;3.22;;
2868;SDS011;1442;47.448;8.582;2024-01-27T09:17:35;5.78;;;2.85;;
2868;SDS011;1442;47.448;8.582;2024-01-27T09:20:02;4.22;;;2.75;;
2868;SDS011;1442;47.448;8.582;2024-01-27T09:22:29;8.82;;;3.00;;
2868;SDS011;1442;47.448;8.582;2024-01-27T09:24:56;4.70;;;3.05;;
2868;SDS011;1442;47.448;8.582;2024-01-27T09:27:23;7.80;;;3.35;;
2868;SDS011;1442;47.448;8.582;2024-01-27T09:29:49;7.00;;;3.63;;
2868;SDS011;1442;47.448;8.582;2024-01-27T09:32:16;6.88;;;3.08;;
2868;SDS011;1442;47.448;8.582;2024-01-27T09:34:44;3.63;;;2.92;;
2868;SDS011;1442;47.448;8.582;2024-01-27T09:37:11;5.40;;;3.63;;
2868;SDS011;1442;47.448;8.582;2024-01-27T09:39:38;7.28;;;2.92;;
2868;SDS011;1442;47.448;8.582;2024-01-27T09:42:06;6.40;;;3.47;;
2868;SDS011;1442;47.448;8.582;2024-01-27T09:44:34;8.40;;;3.55;;
2868;SDS011;1442;47.448;8.582;2024-01-27T09:47:01;8.52;;;3.75;;
2868;SDS011;1442;47.448;8.582;2024-01-27T09:49:29;8.07;;;3.60;;
2868;SDS011;1442;47.448;8.582;2024-01-27T09:51:58;6.68;;;3.72;;
2868;SDS011;1442;47.448;8.582;2024-01-27T09:54:25;7.47;;;3.10;;
2868;SDS011;1442;47.448;8.582;2024-01-27T09:56:52;5.03;;;2.90;;
2868;SDS011;1442;47.448;8.582;2024-01-27T09:59:21;7.45;;;3.63;;
2868;SDS011;1442;47.448;8.582;2024-01-27T10:01:50;7.47;;;3.65;;
2868;SDS011;1442;47.448;8.582;2024-01-27T10:04:18;8.82;;;3.45;;
2868;SDS011;1442;47.448;8.582;2024-01-27T10:06:46;10.88;;;4.00;;
2868;SDS011;1442;47.448;8.582;2024-01-27T10:09:16;8.18;;;4.40;;
2868;SDS011;1442;47.448;8.582;2024-01-27T10:11:45;7.45;;;3.50;;
2868;SDS011;1442;47.448;8.582;2024-01-27T10:14:13;7.93;;;4.10;;
2868;SDS011;1442;47.448;8.582;2024-01-27T10:16:40;5.80;;;4.40;;
2868;SDS011;1442;47.448;8.582;2024-01-27T10:19:08;6.05;;;3.97;;
2868;SDS011;1442;47.448;8.582;2024-01-27T10:21:40;6.78;;;4.05;;
2868;SDS011;1442;47.448;8.582;2024-01-27T10:24:07;9.02;;;3.67;;
2868;SDS011;1442;47.448;8.582;2024-01-27T10:26:35;8.15;;;3.97;;
2868;SDS011;1442;47.448;8.582;2024-01-27T10:29:02;10.82;;;4.30;;
2868;SDS011;1442;47.448;8.582;2024-01-27T10:31:29;6.93;;;3.70;;
2868;SDS011;1442;47.448;8.582;2024-01-27T10:33:57;9.48;;;5.03;;
2868;SDS011;1442;47.448;8.582;2024-01-27T10:36:26;8.02;;;4.30;;
2868;SDS011;1442;47.448;8.582;2024-01-27T10:38:52;7.55;;;3.65;;
2868;SDS011;1442;47.448;8.582;2024-01-27T10:41:21;6.93;;;4.35;;
2868;SDS011;1442;47.448;8.582;2024-01-27T10:43:51;9.93;;;4.07;;
2868;SDS011;1442;47.448;8.582;2024-01-27T10:46:18;7.47;;;3.95;;
2868;SDS011;1442;47.448;8.582;2024-01-27T10:48:49;7.45;;;4.28;;
2868;SDS011;1442;47.448;8.582;2024-01-27T10:51:18;8.98;;;4.15;;
2868;SDS011;1442;47.448;8.582;2024-01-27T10:53:49;7.87;;;4.37;;
2868;SDS011;1442;47.448;8.582;2024-01-27T10:56:18;6.95;;;4.40;;
2868;SDS011;1442;47.448;8.582;2024-01-27T10:58:45;8.65;;;4.40;;
2868;SDS011;1442;47.448;8.582;2024-01-27T11:01:16;8.18;;;4.50;;
2868;SDS011;1442;47.448;8.582;2024-01-27T11:03:47;7.97;;;4.57;;
2868;SDS011;1442;47.448;8.582;2024-01-27T11:06:14;6.07;;;4.10;;
2868;SDS011;1442;47.448;8.582;2024-01-27T11:08:43;8.40;;;4.55;;
2868;SDS011;1442;47.448;8.582;2024-01-27T11:11:10;7.07;;;3.55;;
2868;SDS011;1442;47.448;8.582;2024-01-27T11:13:38;10.25;;;4.50;;
2868;SDS011;1442;47.448;8.582;2024-01-27T11:16:05;8.43;;;4.20;;
2868;SDS011;1442;47.448;8.582;2024-01-27T11:18:41;8.80;;;4.07;;
2868;SDS011;1442;47.448;8.582;2024-01-27T11:21:12;7.82;;;3.65;;
2868;SDS011;1442;47.448;8.582;2024-01-27T11:23:39;6.28;;;3.47;;
2868;SDS011;1442;47.448;8.582;2024-01-27T11:26:07;5.95;;;3.25;;
2868;SDS011;1442;47.448;8.582;2024-01-27T11:28:35;7.25;;;3.83;;
2868;SDS011;1442;47.448;8.582;2024-01-27T11:31:03;8.80;;;3.92;;
2868;SDS011;1442;47.448;8.582;2024-01-27T11:33:30;6.07;;;3.60;;
2868;SDS011;1442;47.448;8.582;2024-01-27T11:36:01;8.70;;;3.80;;
2868;SDS011;1442;47.448;8.582;2024-01-27T11:38:29;4.75;;;3.10;;
2868;SDS011;1442;47.448;8.582;2024-01-27T11:40:57;8.68;;;3.30;;
2868;SDS011;1442;47.448;8.582;2024-01-27T11:43:23;7.57;;;4.20;;
2868;SDS011;1442;47.448;8.582;2024-01-27T11:45:57;9.30;;;3.95;;
2868;SDS011;1442;47.448;8.582;2024-01-27T11:48:24;7.45;;;3.65;;
2868;SDS011;1442;47.448;8.582;2024-01-27T11:51:03;7.47;;;3.40;;
2868;SDS011;1442;47.448;8.582;2024-01-27T11:53:32;3.95;;;3.20;;
2868;SDS011;1442;47.448;8.582;2024-01-27T11:55:58;6.93;;;3.40;;
2868;SDS011;1442;47.448;8.582;2024-01-27T11:58:26;7.60;;;3.25;;
2868;SDS011;1442;47.448;8.582;2024-01-27T12:00:53;6.85;;;3.38;;
2868;SDS011;1442;47.448;8.582;2024-01-27T12:03:19;7.38;;;3.33;;
2868;SDS011;1442;47.448;8.582;2024-01-27T12:05:46;6.95;;;2.95;;
2868;SDS011;1442;47.448;8.582;2024-01-27T12:08:15;9.40;;;3.72;;
2868;SDS011;1442;47.448;8.582;2024-01-27T12:10:43;8.90;;;3.58;;
2868;SDS011;1442;47.448;8.582;2024-01-27T12:13:09;4.95;;;3.40;;
2868;SDS011;1442;47.448;8.582;2024-01-27T12:15:36;7.97;;;3.33;;
2868;SDS011;1442;47.448;8.582;2024-01-27T12:18:04;6.60;;;3.10;;
2868;SDS011;1442;47.448;8.582;2024-01-27T12:20:31;9.68;;;3.90;;
2868;SDS011;1442;47.448;8.582;2024-01-27T12:23:02;7.90;;;3.00;;
2868;SDS011;1442;47.448;8.582;2024-01-27T12:25:30;5.57;;;3.40;;
2868;SDS011;1442;47.448;8.582;2024-01-27T12:27:57;6.15;;;3.47;;
2868;SDS011;1442;47.448;8.582;2024-01-27T12:30:28;5.78;;;2.92;;
2868;SDS011;1442;47.448;8.582;2024-01-27T12:32:54;10.32;;;3.00;;
2868;SDS011;1442;47.448;8.582;2024-01-27T12:35:23;6.60;;;3.03;;
2868;SDS011;1442;47.448;8.582;2024-01-27T12:37:50;8.18;;;3.20;;
2868;SDS011;1442;47.448;8.582;2024-01-27T12:40:17;8.70;;;3.40;;
2868;SDS011;1442;47.448;8.582;2024-01-27T12:42:45;11.80;;;3.33;;
2868;SDS011;1442;47.448;8.582;2024-01-27T12:45:12;5.57;;;3.30;;
2868;SDS011;1442;47.448;8.582;2024-01-27T12:47:39;6.05;;;3.40;;
2868;SDS011;1442;47.448;8.582;2024-01-27T12:50:06;7.07;;;3.40;;
2868;SDS011;1442;47.448;8.582;2024-01-27T12:52:34;9.68;;;3.83;;
2868;SDS011;1442;47.448;8.582;2024-01-27T12:55:02;5.80;;;3.10;;
2868;SDS011;1442;47.448;8.582;2024-01-27T12:57:29;7.72;;;3.35;;
2868;SDS011;1442;47.448;8.582;2024-01-27T12:59:57;5.07;;;3.22;;
2868;SDS011;1442;47.448;8.582;2024-01-27T13:02:24;8.48;;;3.13;;
2868;SDS011;1442;47.448;8.582;2024-01-27T13:04:50;7.32;;;3.58;;
2868;SDS011;1442;47.448;8.582;2024-01-27T13:07:17;7.85;;;3.42;;
2868;SDS011;1442;47.448;8.582;2024-01-27T13:09:44;11.52;;;3.85;;
2868;SDS011;1442;47.448;8.582;2024-01-27T13:12:11;6.15;;;3.08;;
2868;SDS011;1442;47.448;8.582;2024-01-27T13:14:38;10.10;;;3.40;;
2868;SDS011;1442;47.448;8.582;2024-01-27T13:17:06;6.22;;;3.50;;
2868;SDS011;1442;47.448;8.582;2024-01-27T13:19:33;7.78;;;3.30;;
2868;SDS011;1442;47.448;8.582;2024-01-27T13:22:00;6.55;;;3.25;;
2868;SDS011;1442;47.448;8.582;2024-01-27T13:24:27;7.95;;;3.42;;
2868;SDS011;1442;47.448;8.582;2024-01-27T13:26:54;5.22;;;2.90;;
2868;SDS011;1442;47.448;8.582;2024-01-27T13:29:22;11.40;;;3.45;;
2868;SDS011;1442;47.448;8.582;2024-01-27T13:31:49;8.70;;;3.22;;
2868;SDS011;1442;47.448;8.582;2024-01-27T13:34:17;6.50;;;3.25;;
2868;SDS011;1442;47.448;8.582;2024-01-27T13:36:44;8.02;;;3.10;;
2868;SDS011;1442;47.448;8.582;2024-01-27T13:39:11;7.85;;;2.90;;
2868;SDS011;1442;47.448;8.582;2024-01-27T13:41:38;6.18;;;3.22;;
2868;SDS011;1442;47.448;8.582;2024-01-27T13:44:05;5.72;;;2.72;;
2868;SDS011;1442;47.448;8.582;2024-01-27T13:46:32;10.30;;;3.30;;
2868;SDS011;1442;47.448;8.582;2024-01-27T13:48:59;5.55;;;3.03;;
2868;SDS011;1442;47.448;8.582;2024-01-27T13:51:27;6.03;;;2.70;;
2868;SDS011;1442;47.448;8.582;2024-01-27T13:53:54;10.75;;;3.38;;
2868;SDS011;1442;47.448;8.582;2024-01-27T13:56:20;5.65;;;3.92;;
2868;SDS011;1442;47.448;8.582;2024-01-27T13:58:47;6.28;;;3.95;;
2868;SDS011;1442;47.448;8.582;2024-01-27T14:01:14;6.22;;;3.20;;
2868;SDS011;1442;47.448;8.582;2024-01-27T14:03:41;5.53;;;3.13;;
2868;SDS011;1442;47.448;8.582;2024-01-27T14:06:07;7.45;;;3.35;;
2868;SDS011;1442;47.448;8.582;2024-01-27T14:08:38;6.63;;;3.15;;
2868;SDS011;1442;47.448;8.582;2024-01-27T14:11:05;6.65;;;2.63;;
2868;SDS011;1442;47.448;8.582;2024-01-27T14:13:32;5.82;;;3.13;;
2868;SDS011;1442;47.448;8.582;2024-01-27T14:15:59;7.72;;;3.17;;
2868;SDS011;1442;47.448;8.582;2024-01-27T14:18:25;6.55;;;2.80;;
2868;SDS011;1442;47.448;8.582;2024-01-27T14:20:53;7.05;;;2.72;;
2868;SDS011;1442;47.448;8.582;2024-01-27T14:23:20;6.72;;;3.33;;
2868;SDS011;1442;47.448;8.582;2024-01-27T14:25:48;6.75;;;2.75;;
2868;SDS011;1442;47.448;8.582;2024-01-27T14:28:15;5.32;;;2.92;;
2868;SDS011;1442;47.448;8.582;2024-01-27T14:30:42;6.43;;;2.67;;
2868;SDS011;1442;47.448;8.582;2024-01-27T14:33:09;6.78;;;3.20;;
2868;SDS011;1442;47.448;8.582;2024-01-27T14:35:36;5.00;;;2.20;;
2868;SDS011;1442;47.448;8.582;2024-01-27T14:38:04;6.25;;;2.58;;
2868;SDS011;1442;47.448;8.582;2024-01-27T14:40:33;8.02;;;3.03;;
2868;SDS011;1442;47.448;8.582;2024-01-27T14:43:03;5.30;;;3.08;;
2868;SDS011;1442;47.448;8.582;2024-01-27T14:45:33;4.43;;;2.63;;
2868;SDS011;1442;47.448;8.582;2024-01-27T14:48:01;5.97;;;2.63;;
2868;SDS011;1442;47.448;8.582;2024-01-27T14:50:28;8.25;;;3.25;;
2868;SDS011;1442;47.448;8.582;2024-01-27T14:52:55;6.90;;;2.75;;
2868;SDS011;1442;47.448;8.582;2024-01-27T14:55:22;7.85;;;2.53;;
2868;SDS011;1442;47.448;8.582;2024-01-27T14:57:51;6.53;;;2.90;;
2868;SDS011;1442;47.448;8.582;2024-01-27T15:00:19;3.78;;;2.28;;
2868;SDS011;1442;47.448;8.582;2024-01-27T15:02:46;4.03;;;2.50;;
2868;SDS011;1442;47.448;8.582;2024-01-27T15:05:13;5.28;;;2.35;;
2868;SDS011;1442;47.448;8.582;2024-01-27T15:07:40;7.57;;;2.40;;
2868;SDS011;1442;47.448;8.582;2024-01-27T15:10:07;4.30;;;2.47;;
2868;SDS011;1442;47.448;8.582;2024-01-27T15:12:34;5.95;;;2.42;;
2868;SDS011;1442;47.448;8.582;2024-01-27T15:15:01;8.05;;;2.95;;
2868;SDS011;1442;47.448;8.582;2024-01-27T15:17:30;5.82;;;2.33;;